Time;durP1;ratioP1;P1;durP2;ratioP2;P2;SDS_P1;SDS_P2;PMS_P1;PMS_P2;Temp;Humidity;BMP_temperature;BMP_pressure;BME280_temperature;BME280_humidity;BME280_pressure;Samples;Min_cycle;Max_cycle;Signal;HPM_P1;HPM_P2
2021/10/27 00:00:08;;;;;;;13.02;4.07;;;;;;;;;;5078392;28;20020;-75
2021/10/27 00:02:35;;;;;;;12.20;3.83;;;;;;;;;;5078788;28;20054;-76
2021/10/27 00:05:02;;;;;;;10.10;3.53;;;;;;;;;;5080092;28;20036;-75
2021/10/27 00:07:29;;;;;;;13.27;4.05;;;;;;;;;;5079913;28;20044;-73
2021/10/27 00:09:55;;;;;;;9.63;3.67;;;;;;;;;;5079385;28;20032;-73
2021/10/27 00:12:21;;;;;;;13.68;3.65;;;;;;;;;;5080124;28;20027;-75
2021/10/27 00:14:47;;;;;;;7.70;2.92;;;;;;;;;;5083869;28;20036;-72
2021/10/27 00:17:13;;;;;;;11.25;4.05;;;;;;;;;;5081761;28;20035;-73
2021/10/27 00:19:39;;;;;;;15.95;3.78;;;;;;;;;;5082125;28;20031;-74
2021/10/27 00:22:05;;;;;;;15.00;3.70;;;;;;;;;;5081934;28;20036;-71
2021/10/27 00:24:31;;;;;;;14.40;4.75;;;;;;;;;;5082534;28;20021;-76
2021/10/27 00:26:57;;;;;;;13.45;3.83;;;;;;;;;;5084383;28;20029;-70
2021/10/27 00:29:24;;;;;;;10.57;4.03;;;;;;;;;;5088886;28;20024;-71
2021/10/27 00:31:50;;;;;;;15.18;4.15;;;;;;;;;;5088827;28;20020;-72
2021/10/27 00:34:16;;;;;;;13.05;4.00;;;;;;;;;;5088005;28;20058;-72
2021/10/27 00:36:42;;;;;;;11.90;3.60;;;;;;;;;;5089076;28;20028;-72
2021/10/27 00:39:09;;;;;;;14.38;5.07;;;;;;;;;;5088717;28;20024;-71
2021/10/27 00:41:35;;;;;;;9.75;4.63;;;;;;;;;;5088546;28;20051;-71
2021/10/27 00:44:01;;;;;;;12.70;3.80;;;;;;;;;;5088374;28;20582;-71
2021/10/27 00:46:27;;;;;;;10.45;3.63;;;;;;;;;;5088235;28;20317;-71
2021/10/27 00:48:53;;;;;;;15.95;4.13;;;;;;;;;;5087672;28;20119;-75
2021/10/27 00:51:20;;;;;;;11.68;4.28;;;;;;;;;;5088419;28;20033;-72
2021/10/27 00:53:47;;;;;;;9.00;3.40;;;;;;;;;;5088962;28;20126;-71
2021/10/27 00:56:14;;;;;;;19.75;3.38;;;;;;;;;;5087001;28;20120;-74
2021/10/27 00:58:40;;;;;;;14.85;3.63;;;;;;;;;;5088041;28;20100;-72
2021/10/27 01:01:07;;;;;;;12.60;3.67;;;;;;;;;;5087146;28;20028;-71
2021/10/27 01:03:36;;;;;;;9.38;3.42;;;;;;;;;;5088909;28;20028;-74
2021/10/27 01:06:03;;;;;;;8.60;2.80;;;;;;;;;;5089270;28;20123;-72
2021/10/27 01:08:30;;;;;;;10.23;3.47;;;;;;;;;;5088930;28;20029;-72
2021/10/27 01:10:56;;;;;;;7.10;2.85;;;;;;;;;;5087842;28;20025;-74
2021/10/27 01:13:22;;;;;;;7.68;3.35;;;;;;;;;;5086729;28;20111;-74
2021/10/27 01:15:48;;;;;;;12.45;3.45;;;;;;;;;;5083181;28;20032;-72
2021/10/27 01:18:14;;;;;;;10.95;2.83;;;;;;;;;;5084136;28;20099;-74
2021/10/27 01:20:40;;;;;;;12.45;3.60;;;;;;;;;;5083649;28;20024;-76
2021/10/27 01:23:06;;;;;;;9.70;3.97;;;;;;;;;;5082278;28;20108;-73
2021/10/27 01:25:33;;;;;;;9.30;3.13;;;;;;;;;;5083093;28;20032;-76
2021/10/27 01:28:01;;;;;;;10.52;3.50;;;;;;;;;;5083367;28;20028;-74
2021/10/27 01:30:27;;;;;;;11.23;3.45;;;;;;;;;;5084061;28;20021;-72
2021/10/27 01:32:53;;;;;;;12.48;3.03;;;;;;;;;;5084523;28;20025;-76
2021/10/27 01:35:20;;;;;;;8.70;3.72;;;;;;;;;;5084969;28;20080;-75
2021/10/27 01:37:46;;;;;;;14.43;3.22;;;;;;;;;;5084755;28;20028;-70
2021/10/27 01:40:13;;;;;;;8.70;3.05;;;;;;;;;;5086052;28;20060;-72
2021/10/27 01:42:40;;;;;;;8.75;3.67;;;;;;;;;;5083432;28;20052;-75
2021/10/27 01:45:07;;;;;;;7.43;3.15;;;;;;;;;;5082808;28;20029;-72
2021/10/27 01:47:33;;;;;;;10.13;3.00;;;;;;;;;;5083817;28;20054;-75
2021/10/27 01:50:00;;;;;;;10.27;3.08;;;;;;;;;;5085380;28;20407;-71
2021/10/27 01:52:27;;;;;;;6.88;3.42;;;;;;;;;;5085831;28;20048;-72
2021/10/27 01:54:53;;;;;;;14.00;3.28;;;;;;;;;;5086022;28;20028;-73
2021/10/27 01:57:19;;;;;;;7.72;2.47;;;;;;;;;;5086106;28;20024;-76
2021/10/27 01:59:45;;;;;;;7.13;2.83;;;;;;;;;;5085639;28;20025;-73
2021/10/27 02:02:11;;;;;;;5.65;2.30;;;;;;;;;;5084644;28;20084;-74
2021/10/27 02:04:37;;;;;;;3.38;2.17;;;;;;;;;;5086205;28;20020;-72
2021/10/27 02:07:03;;;;;;;3.83;2.08;;;;;;;;;;5084567;28;20025;-70
2021/10/27 02:09:31;;;;;;;8.05;3.00;;;;;;;;;;5084989;28;20024;-73
2021/10/27 02:11:58;;;;;;;7.93;2.97;;;;;;;;;;5085001;28;20497;-74
2021/10/27 02:14:24;;;;;;;9.20;3.58;;;;;;;;;;5085519;28;20021;-72
2021/10/27 02:16:50;;;;;;;9.40;3.45;;;;;;;;;;5083483;28;20081;-70
2021/10/27 02:19:16;;;;;;;7.25;2.78;;;;;;;;;;5082417;28;20028;-76
2021/10/27 02:21:42;;;;;;;9.27;2.30;;;;;;;;;;5082318;28;20043;-74
2021/10/27 02:24:09;;;;;;;11.35;3.15;;;;;;;;;;5082475;28;20549;-71
2021/10/27 02:26:35;;;;;;;7.95;2.40;;;;;;;;;;5082658;28;20028;-74
2021/10/27 02:29:01;;;;;;;5.72;2.50;;;;;;;;;;5082777;28;20027;-73
2021/10/27 02:31:27;;;;;;;6.97;2.80;;;;;;;;;;5083908;28;20027;-72
2021/10/27 02:33:53;;;;;;;8.27;2.40;;;;;;;;;;5083351;28;20044;-75
2021/10/27 02:36:19;;;;;;;9.15;2.42;;;;;;;;;;5079506;28;20020;-74
2021/10/27 02:38:45;;;;;;;7.05;2.63;;;;;;;;;;5079266;28;20021;-71
2021/10/27 02:41:12;;;;;;;6.32;2.35;;;;;;;;;;5080018;28;20039;-74
2021/10/27 02:43:38;;;;;;;6.32;2.72;;;;;;;;;;5079516;28;20028;-75
2021/10/27 02:46:05;;;;;;;6.38;1.90;;;;;;;;;;5079499;28;20067;-71
2021/10/27 02:48:34;;;;;;;9.20;2.67;;;;;;;;;;5079849;28;20510;-72
2021/10/27 02:51:00;;;;;;;5.90;3.60;;;;;;;;;;5079650;28;20364;-74
2021/10/27 02:53:26;;;;;;;2.67;1.90;;;;;;;;;;5079090;28;20021;-71
2021/10/27 02:55:58;;;;;;;5.85;2.13;;;;;;;;;;5084227;28;20021;-73
2021/10/27 02:58:24;;;;;;;4.53;2.22;;;;;;;;;;5079513;28;20032;-73
2021/10/27 03:00:51;;;;;;;5.32;2.10;;;;;;;;;;5080212;28;20066;-76
2021/10/27 03:03:17;;;;;;;3.97;2.10;;;;;;;;;;5079719;28;20085;-76
2021/10/27 03:05:44;;;;;;;7.18;2.20;;;;;;;;;;5078544;28;20476;-72
2021/10/27 03:08:10;;;;;;;6.25;1.98;;;;;;;;;;5079783;28;20474;-74
2021/10/27 03:10:36;;;;;;;7.00;2.30;;;;;;;;;;5079680;28;20032;-74
2021/10/27 03:13:02;;;;;;;3.50;2.03;;;;;;;;;;5078832;28;20042;-72
2021/10/27 03:15:28;;;;;;;5.13;2.28;;;;;;;;;;5079643;28;20028;-73
2021/10/27 03:17:54;;;;;;;4.28;2.00;;;;;;;;;;5079478;28;20032;-73
2021/10/27 03:20:20;;;;;;;5.28;2.30;;;;;;;;;;5078594;28;20364;-74
2021/10/27 03:22:46;;;;;;;8.10;2.40;;;;;;;;;;5079272;28;20017;-73
2021/10/27 03:25:12;;;;;;;3.72;1.85;;;;;;;;;;5077677;28;20025;-74
2021/10/27 03:27:39;;;;;;;6.68;2.00;;;;;;;;;;5078382;28;20024;-77
2021/10/27 03:30:06;;;;;;;5.88;1.73;;;;;;;;;;5078759;28;20025;-75
2021/10/27 03:32:32;;;;;;;4.07;2.17;;;;;;;;;;5078776;28;20076;-74
2021/10/27 03:34:58;;;;;;;5.47;2.22;;;;;;;;;;5077843;28;20387;-75
2021/10/27 03:37:24;;;;;;;7.18;1.80;;;;;;;;;;5077873;28;20395;-74
2021/10/27 03:39:51;;;;;;;6.55;1.90;;;;;;;;;;5075231;28;20021;-73
2021/10/27 03:42:17;;;;;;;4.93;2.38;;;;;;;;;;5076583;28;20020;-75
2021/10/27 03:44:43;;;;;;;3.40;2.10;;;;;;;;;;5077772;28;20626;-75
2021/10/27 03:47:09;;;;;;;4.35;1.80;;;;;;;;;;5079958;28;20032;-71
2021/10/27 03:49:35;;;;;;;3.10;2.08;;;;;;;;;;5081656;28;20506;-73
2021/10/27 03:52:02;;;;;;;3.25;1.83;;;;;;;;;;5082240;28;20020;-76
2021/10/27 03:54:28;;;;;;;3.88;2.28;;;;;;;;;;5082236;28;20016;-73
2021/10/27 03:56:55;;;;;;;2.92;1.92;;;;;;;;;;5082235;28;20029;-71
2021/10/27 03:59:21;;;;;;;1.73;1.55;;;;;;;;;;5081950;28;20024;-76
2021/10/27 04:01:47;;;;;;;3.83;1.80;;;;;;;;;;5082452;28;20024;-74
2021/10/27 04:04:13;;;;;;;2.95;1.70;;;;;;;;;;5082009;28;20032;-73
2021/10/27 04:06:48;;;;;;;5.43;1.90;;;;;;;;;;5082484;28;20378;-73
2021/10/27 04:09:14;;;;;;;1.60;1.50;;;;;;;;;;5086003;28;20032;-75
2021/10/27 04:11:41;;;;;;;3.42;1.85;;;;;;;;;;5081910;28;20052;-74
2021/10/27 04:14:07;;;;;;;2.50;2.22;;;;;;;;;;5082073;28;20028;-73
2021/10/27 04:16:33;;;;;;;3.55;1.60;;;;;;;;;;5082238;28;20032;-74
2021/10/27 04:18:59;;;;;;;2.08;1.40;;;;;;;;;;5081999;28;20046;-75
2021/10/27 04:21:26;;;;;;;2.80;1.70;;;;;;;;;;5082118;28;20028;-72
2021/10/27 04:23:52;;;;;;;2.85;1.80;;;;;;;;;;5081460;28;20033;-74
2021/10/27 04:26:18;;;;;;;1.83;1.60;;;;;;;;;;5082192;28;20025;-75
2021/10/27 04:28:44;;;;;;;3.45;1.58;;;;;;;;;;5081403;28;20029;-72
2021/10/27 04:31:10;;;;;;;1.92;1.67;;;;;;;;;;5080831;28;20020;-74
2021/10/27 04:33:36;;;;;;;4.10;1.67;;;;;;;;;;5081306;28;20036;-76
2021/10/27 04:36:02;;;;;;;2.42;1.67;;;;;;;;;;5081018;28;20104;-73
2021/10/27 04:38:29;;;;;;;1.67;1.45;;;;;;;;;;5081079;28;20020;-76
2021/10/27 04:40:55;;;;;;;2.05;1.48;;;;;;;;;;5082181;28;20021;-76
2021/10/27 04:43:22;;;;;;;2.28;1.65;;;;;;;;;;5081616;28;20051;-74
2021/10/27 04:45:48;;;;;;;3.58;2.33;;;;;;;;;;5081096;28;20016;-76
2021/10/27 04:48:15;;;;;;;2.00;1.90;;;;;;;;;;5082052;28;20063;-72
2021/10/27 04:50:41;;;;;;;4.63;1.83;;;;;;;;;;5082204;28;20671;-72
2021/10/27 04:53:15;;;;;;;1.85;1.73;;;;;;;;;;5081085;28;20098;-76
2021/10/27 04:55:41;;;;;;;3.38;1.80;;;;;;;;;;5082404;28;20069;-72
2021/10/27 04:58:07;;;;;;;4.78;1.48;;;;;;;;;;5080904;28;20474;-74
2021/10/27 05:00:33;;;;;;;2.92;1.48;;;;;;;;;;5081570;28;20040;-75
2021/10/27 05:02:59;;;;;;;2.78;1.73;;;;;;;;;;5080992;28;20497;-72
2021/10/27 05:05:26;;;;;;;3.40;1.52;;;;;;;;;;5080791;28;20021;-74
2021/10/27 05:07:53;;;;;;;2.08;1.52;;;;;;;;;;5079843;28;20537;-74
2021/10/27 05:10:19;;;;;;;2.95;1.65;;;;;;;;;;5081583;28;20051;-72
2021/10/27 05:12:45;;;;;;;1.95;1.52;;;;;;;;;;5080556;28;20078;-76
2021/10/27 05:15:11;;;;;;;2.95;1.60;;;;;;;;;;5081582;28;20162;-73
2021/10/27 05:17:38;;;;;;;1.98;1.73;;;;;;;;;;5081174;28;20114;-73
2021/10/27 05:20:04;;;;;;;2.90;1.50;;;;;;;;;;5081486;28;20028;-77
2021/10/27 05:22:33;;;;;;;2.42;1.48;;;;;;;;;;5081293;28;20029;-75
2021/10/27 05:24:59;;;;;;;1.77;1.40;;;;;;;;;;5081103;28;20024;-71
2021/10/27 05:27:25;;;;;;;3.42;1.60;;;;;;;;;;5081010;28;20071;-74
2021/10/27 05:29:52;;;;;;;2.90;1.65;;;;;;;;;;5084634;28;20052;-71
2021/10/27 05:32:18;;;;;;;3.10;1.83;;;;;;;;;;5064057;28;20522;-74
2021/10/27 05:34:44;;;;;;;1.90;1.60;;;;;;;;;;5081066;28;20025;-75
2021/10/27 05:37:11;;;;;;;1.88;1.58;;;;;;;;;;5081281;28;20024;-76
2021/10/27 05:39:47;;;;;;;2.88;1.75;;;;;;;;;;5081177;28;20505;-70
2021/10/27 05:42:20;;;;;;;3.17;1.70;;;;;;;;;;5082155;28;20069;-74
2021/10/27 05:44:47;;;;;;;3.65;2.10;;;;;;;;;;5080816;28;20483;-74
2021/10/27 05:47:13;;;;;;;4.95;2.03;;;;;;;;;;5080849;28;20029;-74
2021/10/27 05:49:47;;;;;;;5.10;2.00;;;;;;;;;;5080715;28;20116;-71
2021/10/27 05:57:44;;;;;;;2.92;1.92;;;;;;;;;;5058476;28;20040;-72
2021/10/27 06:00:10;;;;;;;4.78;1.92;;;;;;;;;;5058248;28;20122;-74
2021/10/27 06:02:37;;;;;;;3.67;1.75;;;;;;;;;;5068741;28;20052;-75
2021/10/27 06:05:04;;;;;;;5.03;1.80;;;;;;;;;;5080754;28;20024;-71
2021/10/27 06:07:33;;;;;;;2.42;1.77;;;;;;;;;;5080746;28;20134;-74
2021/10/27 06:09:59;;;;;;;3.55;1.70;;;;;;;;;;5079559;28;20031;-72
2021/10/27 06:12:26;;;;;;;3.10;1.63;;;;;;;;;;5081037;28;20046;-76
2021/10/27 06:14:52;;;;;;;3.20;2.30;;;;;;;;;;5080436;28;20017;-71
2021/10/27 06:17:18;;;;;;;4.00;1.65;;;;;;;;;;5080886;28;20028;-73
2021/10/27 06:19:44;;;;;;;3.58;1.85;;;;;;;;;;5081067;28;20031;-72
2021/10/27 06:22:10;;;;;;;3.58;2.00;;;;;;;;;;5082670;28;20032;-71
2021/10/27 06:24:37;;;;;;;3.72;1.67;;;;;;;;;;5084862;28;20109;-72
2021/10/27 06:27:04;;;;;;;2.58;1.60;;;;;;;;;;5084180;28;20098;-73
2021/10/27 06:29:39;;;;;;;3.22;1.73;;;;;;;;;;5085352;28;20483;-71
2021/10/27 06:34:40;;;;;;;4.43;2.00;;;;;;;;;;5083750;28;20025;-74
2021/10/27 06:47:47;;;;;;;5.07;2.40;;;;;;;;;;5080798;28;20039;-74
2021/10/27 06:50:13;;;;;;;5.40;1.73;;;;;;;;;;5081188;28;20057;-71
2021/10/27 06:52:39;;;;;;;2.25;1.65;;;;;;;;;;5080443;28;20467;-77
2021/10/27 06:55:06;;;;;;;6.72;1.92;;;;;;;;;;5079664;28;20025;-76
2021/10/27 06:57:34;;;;;;;3.50;1.90;;;;;;;;;;5080539;28;20050;-71
2021/10/27 07:00:11;;;;;;;4.60;1.70;;;;;;;;;;5080901;28;20021;-73
2021/10/27 07:03:17;;;;;;;4.07;1.95;;;;;;;;;;5081361;28;20163;-75
2021/10/27 07:16:25;;;;;;;4.13;1.95;;;;;;;;;;5081509;28;20031;-72
2021/10/27 07:18:51;;;;;;;4.63;2.25;;;;;;;;;;5082628;28;20025;-77
2021/10/27 07:21:18;;;;;;;4.28;2.17;;;;;;;;;;5083274;28;20040;-75
2021/10/27 07:23:44;;;;;;;4.43;2.80;;;;;;;;;;5087793;28;20028;-72
2021/10/27 07:26:11;;;;;;;3.30;2.00;;;;;;;;;;5086211;28;20020;-76
2021/10/27 07:28:37;;;;;;;3.70;2.00;;;;;;;;;;5086739;28;20056;-75
2021/10/27 07:31:04;;;;;;;3.33;2.55;;;;;;;;;;5087259;28;20029;-73
2021/10/27 07:33:32;;;;;;;3.65;1.77;;;;;;;;;;5087095;28;20025;-73
2021/10/27 07:36:09;;;;;;;5.18;2.00;;;;;;;;;;5087369;28;20035;-71
2021/10/27 07:41:20;;;;;;;4.28;2.03;;;;;;;;;;5086476;28;20078;-76
2021/10/27 07:43:46;;;;;;;3.20;2.20;;;;;;;;;;5086773;28;20130;-76
2021/10/27 07:46:12;;;;;;;8.27;1.95;;;;;;;;;;5085430;28;20024;-71
2021/10/27 07:48:38;;;;;;;6.40;2.25;;;;;;;;;;5082764;28;20067;-74
2021/10/27 07:51:04;;;;;;;4.10;2.00;;;;;;;;;;5084476;28;20020;-73
2021/10/27 07:53:32;;;;;;;2.97;1.98;;;;;;;;;;5084259;28;20474;-71
2021/10/27 07:55:59;;;;;;;3.65;1.90;;;;;;;;;;5084701;28;20099;-74
2021/10/27 07:58:26;;;;;;;3.97;2.00;;;;;;;;;;5084130;28;20064;-75
2021/10/27 08:00:53;;;;;;;6.18;2.17;;;;;;;;;;5083259;28;20028;-76
2021/10/27 08:03:20;;;;;;;3.70;2.03;;;;;;;;;;5083362;28;20055;-72
2021/10/27 08:05:47;;;;;;;7.40;2.70;;;;;;;;;;5082651;28;20033;-75
2021/10/27 08:08:14;;;;;;;5.47;2.75;;;;;;;;;;5080881;28;20055;-74
2021/10/27 08:10:41;;;;;;;3.38;1.85;;;;;;;;;;5082184;28;20024;-74
2021/10/27 08:13:09;;;;;;;4.45;1.80;;;;;;;;;;5082756;28;20051;-72
2021/10/27 08:15:35;;;;;;;2.15;1.60;;;;;;;;;;5082162;28;20414;-74
2021/10/27 08:18:01;;;;;;;3.38;1.38;;;;;;;;;;5082410;28;20024;-75
2021/10/27 08:20:28;;;;;;;3.40;1.95;;;;;;;;;;5082317;28;20081;-75
2021/10/27 08:22:57;;;;;;;2.17;1.60;;;;;;;;;;5082108;28;20075;-72
2021/10/27 08:25:29;;;;;;;2.38;2.15;;;;;;;;;;5082409;28;20074;-76
2021/10/27 08:28:05;;;;;;;3.33;1.30;;;;;;;;;;5082409;28;20024;-74
2021/10/27 08:30:36;;;;;;;1.95;1.45;;;;;;;;;;5081740;28;20029;-72
2021/10/27 08:33:05;;;;;;;1.60;1.50;;;;;;;;;;5081249;28;20104;-75
2021/10/27 08:35:31;;;;;;;1.50;1.40;;;;;;;;;;5081933;28;20021;-74
2021/10/27 08:37:58;;;;;;;1.80;1.70;;;;;;;;;;5082187;28;20035;-73
2021/10/27 08:40:24;;;;;;;1.95;1.33;;;;;;;;;;5081905;28;20052;-75
2021/10/27 08:42:50;;;;;;;1.10;1.10;;;;;;;;;;5081427;28;20049;-73
2021/10/27 08:45:17;;;;;;;1.60;1.50;;;;;;;;;;5081983;28;20024;-74
2021/10/27 08:47:48;;;;;;;1.52;1.30;;;;;;;;;;5081653;28;20036;-72
2021/10/27 08:50:15;;;;;;;1.15;1.02;;;;;;;;;;5080541;28;20384;-71
2021/10/27 08:52:42;;;;;;;1.27;1.17;;;;;;;;;;5081802;28;20032;-75
2021/10/27 08:55:11;;;;;;;1.30;1.20;;;;;;;;;;5083464;28;20029;-77
2021/10/27 08:57:37;;;;;;;1.38;1.27;;;;;;;;;;5082634;28;20025;-73
2021/10/27 09:35:54;;;;;;;;;;;;;;;;;;5082552;28;20035;-76
2021/10/27 09:44:32;;;;;;;4.95;2.22;;;;;;;;;;5080770;28;20024;-77
2021/10/27 09:47:19;;;;;;;7.03;3.45;;;;;;;;;;5081016;28;20021;-73
2021/10/27 10:06:25;;;;;;;3.58;1.48;;;;;;;;;;5087336;28;20071;-71
2021/10/27 10:08:52;;;;;;;2.45;1.60;;;;;;;;;;5082381;28;20108;-73
2021/10/27 10:11:22;;;;;;;2.40;1.67;;;;;;;;;;5081495;28;20441;-74
2021/10/27 10:13:50;;;;;;;4.40;1.70;;;;;;;;;;5080698;28;20023;-75
2021/10/27 10:16:17;;;;;;;2.83;1.52;;;;;;;;;;5080912;28;20100;-76
2021/10/27 10:18:46;;;;;;;1.98;1.40;;;;;;;;;;5081188;28;20039;-72
2021/10/27 10:21:19;;;;;;;2.08;1.40;;;;;;;;;;5081194;28;20020;-73
2021/10/27 10:23:45;;;;;;;2.15;1.48;;;;;;;;;;5081296;28;20020;-73
2021/10/27 10:26:13;;;;;;;2.10;1.95;;;;;;;;;;5081714;28;20020;-76
2021/10/27 10:28:43;;;;;;;3.22;1.38;;;;;;;;;;5079876;28;20106;-75
2021/10/27 10:31:10;;;;;;;2.25;1.50;;;;;;;;;;5080439;28;20025;-74
2021/10/27 10:33:44;;;;;;;2.05;1.50;;;;;;;;;;5080467;28;20091;-72
2021/10/27 10:36:32;;;;;;;3.23;1.50;;;;;;;;;;5080002;28;20024;-72
2021/10/27 10:44:51;;;;;;;14.55;11.07;;;;;;;;;;5079978;28;20081;-73
2021/10/27 11:23:46;;;;;;;2.42;1.80;;;;;;;;;;5084832;28;20067;-74
2021/10/27 11:45:38;;;;;;;1.92;1.27;;;;;;;;;;5086561;28;20043;-70
2021/10/27 11:50:52;;;;;;;2.10;1.50;;;;;;;;;;5076030;28;20028;-74
2021/10/27 11:53:29;;;;;;;2.45;1.45;;;;;;;;;;5081679;28;20029;-72
2021/10/27 11:55:55;;;;;;;2.70;1.40;;;;;;;;;;5081100;28;20021;-75
2021/10/27 11:58:23;;;;;;;1.48;1.38;;;;;;;;;;5081169;28;20032;-72
2021/10/27 12:01:00;;;;;;;1.48;1.38;;;;;;;;;;5080261;28;20051;-72
2021/10/27 12:03:35;;;;;;;2.00;1.13;;;;;;;;;;5081323;28;20021;-75
2021/10/27 12:06:04;;;;;;;2.10;1.38;;;;;;;;;;5082455;28;20028;-76
2021/10/27 12:11:12;;;;;;;1.73;1.35;;;;;;;;;;5087161;28;20025;-74
2021/10/27 12:13:44;;;;;;;1.50;1.40;;;;;;;;;;5085327;28;20055;-74
2021/10/27 12:19:26;;;;;;;1.90;1.60;;;;;;;;;;5068489;28;20550;-73
2021/10/27 12:21:56;;;;;;;1.30;1.20;;;;;;;;;;5087070;28;20029;-74
2021/10/27 12:24:24;;;;;;;1.58;1.48;;;;;;;;;;5087920;28;20396;-73
2021/10/27 12:26:59;;;;;;;1.60;1.50;;;;;;;;;;5087899;28;20031;-72
2021/10/27 12:29:26;;;;;;;1.60;1.40;;;;;;;;;;5088165;28;20047;-75
2021/10/27 12:32:08;;;;;;;2.78;1.25;;;;;;;;;;5087567;28;20016;-72
2021/10/27 12:34:49;;;;;;;2.53;1.42;;;;;;;;;;5087888;28;20020;-72
2021/10/27 12:37:38;;;;;;;3.08;1.58;;;;;;;;;;5087355;28;20048;-72
2021/10/27 12:42:58;;;;;;;3.10;1.50;;;;;;;;;;5087648;28;20028;-74
2021/10/27 12:45:39;;;;;;;3.78;1.90;;;;;;;;;;5088003;28;20028;-73
2021/10/27 12:48:10;;;;;;;5.35;3.38;;;;;;;;;;5086356;28;20359;-72
2021/10/27 12:50:38;;;;;;;2.65;1.67;;;;;;;;;;5082609;28;20078;-72
2021/10/27 12:53:05;;;;;;;3.25;1.90;;;;;;;;;;5081157;28;20021;-75
2021/10/27 12:55:32;;;;;;;7.00;4.50;;;;;;;;;;5080891;28;20479;-75
2021/10/27 12:58:16;;;;;;;9.20;5.95;;;;;;;;;;5082586;28;20493;-73
2021/10/27 13:00:58;;;;;;;10.35;7.20;;;;;;;;;;5085692;28;20047;-74
2021/10/27 13:30:28;;;;;;;7.53;2.90;;;;;;;;;;5087290;28;20448;-71
2021/10/27 13:32:30;;;;;;;4.28;2.80;;;;;;;;;;5084667;28;20058;-72
2021/10/27 13:34:59;;;;;;;2.22;1.83;;;;;;;;;;5087799;28;20050;-72
2021/10/27 13:37:28;;;;;;;4.50;3.00;;;;;;;;;;5087807;28;20013;-71
2021/10/27 13:39:54;;;;;;;5.85;2.95;;;;;;;;;;5086940;28;20052;-72
2021/10/27 13:42:28;;;;;;;3.35;2.30;;;;;;;;;;5087128;28;20021;-72
2021/10/27 13:47:33;;;;;;;4.57;2.70;;;;;;;;;;5087223;28;20107;-72
2021/10/27 14:06:41;;;;;;;5.20;2.07;;;;;;;;;;5087129;28;20047;-71
2021/10/27 14:09:16;;;;;;;7.50;3.60;;;;;;;;;;5086793;28;20370;-75
2021/10/27 14:14:23;;;;;;;5.03;3.70;;;;;;;;;;5086848;28;20025;-72
2021/10/27 14:17:25;;;;;;;4.18;1.95;;;;;;;;;;5086586;28;20036;-71
2021/10/27 15:19:48;;;;;;;8.73;6.27;;;;;;;;;;5084842;28;20043;-72
2021/10/27 15:22:34;;;;;;;4.85;2.53;;;;;;;;;;5084357;28;20074;-72
2021/10/27 15:28:03;;;;;;;3.35;2.45;;;;;;;;;;5084435;28;20051;-73
2021/10/27 15:30:45;;;;;;;4.93;2.33;;;;;;;;;;5083963;28;20090;-73
2021/10/27 15:36:02;;;;;;;3.78;2.00;;;;;;;;;;5083715;28;20482;-73
2021/10/27 15:44:13;;;;;;;4.53;2.05;;;;;;;;;;5086530;28;20052;-75
2021/10/27 15:52:13;;;;;;;7.07;3.90;;;;;;;;;;5086910;28;20145;-71
2021/10/27 15:54:39;;;;;;;7.68;3.55;;;;;;;;;;5086330;28;20022;-72
2021/10/27 15:57:05;;;;;;;6.38;4.30;;;;;;;;;;5086134;28;20040;-73
2021/10/27 15:59:31;;;;;;;8.35;5.07;;;;;;;;;;5086511;28;20568;-74
2021/10/27 16:01:57;;;;;;;6.05;3.67;;;;;;;;;;5087450;28;20020;-72
2021/10/27 16:04:23;;;;;;;6.45;4.07;;;;;;;;;;5086084;28;20033;-72
2021/10/27 16:06:51;;;;;;;7.18;4.00;;;;;;;;;;5086650;28;20025;-74
2021/10/27 16:09:18;;;;;;;3.40;2.55;;;;;;;;;;5089334;28;20076;-72
2021/10/27 16:11:46;;;;;;;13.15;7.13;;;;;;;;;;5087911;28;20020;-71
2021/10/27 16:14:13;;;;;;;14.02;8.32;;;;;;;;;;5087490;28;20021;-77
2021/10/27 16:16:40;;;;;;;8.88;4.63;;;;;;;;;;5086758;28;20020;-74
2021/10/27 16:19:06;;;;;;;18.48;11.45;;;;;;;;;;5086823;28;20032;-73
2021/10/27 16:21:32;;;;;;;8.32;5.20;;;;;;;;;;5086759;28;20032;-74
2021/10/27 16:23:59;;;;;;;7.25;5.43;;;;;;;;;;5086208;28;20032;-74
2021/10/27 16:26:26;;;;;;;4.80;3.78;;;;;;;;;;5085629;28;20107;-74
2021/10/27 16:28:52;;;;;;;123.65;66.00;;;;;;;;;;5086728;28;20034;-75
2021/10/27 16:31:20;;;;;;;130.80;67.50;;;;;;;;;;5086423;28;20021;-73
2021/10/27 16:33:46;;;;;;;14.63;9.02;;;;;;;;;;5087440;28;20020;-72
2021/10/27 16:36:13;;;;;;;236.25;134.57;;;;;;;;;;5086819;28;20021;-72
2021/10/27 16:38:40;;;;;;;110.95;59.65;;;;;;;;;;5087476;28;20044;-74
2021/10/27 16:41:06;;;;;;;46.03;26.77;;;;;;;;;;5087445;28;20017;-75
2021/10/27 16:43:33;;;;;;;6.13;4.75;;;;;;;;;;5089597;28;20024;-71
2021/10/27 16:45:59;;;;;;;24.70;17.50;;;;;;;;;;5086140;28;20391;-71
2021/10/27 16:48:26;;;;;;;14.35;12.20;;;;;;;;;;5088437;28;20142;-72
2021/10/27 16:50:52;;;;;;;9.90;7.55;;;;;;;;;;5087543;28;20017;-71
2021/10/27 16:53:19;;;;;;;4.70;3.80;;;;;;;;;;5085467;28;20017;-77
2021/10/27 16:55:46;;;;;;;4.00;2.28;;;;;;;;;;5085261;28;20020;-71
2021/10/27 16:58:14;;;;;;;5.80;2.85;;;;;;;;;;5085456;28;20162;-72
2021/10/27 17:00:41;;;;;;;18.52;17.00;;;;;;;;;;5084326;28;20036;-70
2021/10/27 17:03:07;;;;;;;3.70;2.80;;;;;;;;;;5086304;28;20025;-77
2021/10/27 17:05:33;;;;;;;13.27;12.15;;;;;;;;;;5086751;28;20116;-72
2021/10/27 17:07:59;;;;;;;11.52;10.50;;;;;;;;;;5086399;28;20054;-73
2021/10/27 17:10:26;;;;;;;9.63;8.52;;;;;;;;;;5087241;28;20056;-71
2021/10/27 17:12:52;;;;;;;9.60;5.88;;;;;;;;;;5087328;28;20455;-75
2021/10/27 17:15:19;;;;;;;9.45;5.95;;;;;;;;;;5082146;28;20031;-74
2021/10/27 17:17:45;;;;;;;8.02;4.68;;;;;;;;;;5081257;28;20048;-75
2021/10/27 17:20:14;;;;;;;7.10;3.97;;;;;;;;;;5081821;28;20032;-76
2021/10/27 17:22:42;;;;;;;7.15;4.38;;;;;;;;;;5083005;28;20078;-73
2021/10/27 17:25:09;;;;;;;10.95;8.25;;;;;;;;;;5085846;28;20078;-74
2021/10/27 17:27:39;;;;;;;4.95;3.17;;;;;;;;;;5085558;28;20029;-73
2021/10/27 17:30:11;;;;;;;11.43;6.63;;;;;;;;;;5085064;28;20103;-75
2021/10/27 17:32:38;;;;;;;26.27;13.65;;;;;;;;;;5084401;28;20078;-74
2021/10/27 17:35:07;;;;;;;13.70;7.20;;;;;;;;;;5084989;28;20552;-72
2021/10/27 17:37:34;;;;;;;11.85;6.93;;;;;;;;;;5085910;28;20107;-71
2021/10/27 17:40:06;;;;;;;11.45;7.68;;;;;;;;;;5085275;28;20392;-72
2021/10/27 17:42:33;;;;;;;11.88;8.38;;;;;;;;;;5085139;28;20025;-75
2021/10/27 17:45:00;;;;;;;20.92;11.13;;;;;;;;;;5084345;28;20048;-74
2021/10/27 17:47:31;;;;;;;16.02;8.52;;;;;;;;;;5081465;28;20020;-76
2021/10/27 17:50:52;;;;;;;39.17;20.25;;;;;;;;;;5079562;28;20538;-73
2021/10/27 17:58:43;;;;;;;6.55;4.25;;;;;;;;;;5077943;28;20036;-75
2021/10/27 18:00:45;;;;;;;11.35;8.32;;;;;;;;;;5072399;28;20036;-74
2021/10/27 18:03:11;;;;;;;17.67;9.82;;;;;;;;;;5075563;28;20498;-75
2021/10/27 18:05:37;;;;;;;20.23;18.45;;;;;;;;;;5075906;28;20035;-75
2021/10/27 18:08:06;;;;;;;14.05;9.65;;;;;;;;;;5080436;28;20072;-74
2021/10/27 18:10:32;;;;;;;6.38;5.32;;;;;;;;;;5078480;28;20415;-74
2021/10/27 18:13:00;;;;;;;5.35;3.53;;;;;;;;;;5075232;28;20029;-74
2021/10/27 18:15:32;;;;;;;4.55;2.92;;;;;;;;;;5074704;28;20402;-75
2021/10/27 18:17:59;;;;;;;3.38;2.67;;;;;;;;;;5075083;28;20078;-76
2021/10/27 18:20:28;;;;;;;4.10;2.30;;;;;;;;;;5074870;28;20052;-73
2021/10/27 18:23:12;;;;;;;4.25;2.83;;;;;;;;;;5075307;28;20028;-76
2021/10/27 18:26:03;;;;;;;4.45;2.95;;;;;;;;;;5074997;28;20100;-75
2021/10/27 18:28:35;;;;;;;4.25;2.80;;;;;;;;;;5075291;28;20051;-76
2021/10/27 18:37:00;;;;;;;5.88;5.05;;;;;;;;;;5054835;28;20430;-72
2021/10/27 18:39:43;;;;;;;5.88;3.80;;;;;;;;;;5074657;28;20395;-77
2021/10/27 18:42:11;;;;;;;12.18;6.90;;;;;;;;;;5078572;28;20190;-73
2021/10/27 18:44:38;;;;;;;5.57;3.67;;;;;;;;;;5077966;28;20383;-76
2021/10/27 18:47:09;;;;;;;9.27;5.68;;;;;;;;;;5076177;28;20386;-75
2021/10/27 18:49:35;;;;;;;5.32;4.32;;;;;;;;;;5077509;28;20041;-76
2021/10/27 18:52:12;;;;;;;16.60;12.05;;;;;;;;;;5076934;28;20020;-76
2021/10/27 18:54:56;;;;;;;8.98;5.43;;;;;;;;;;5074303;28;20020;-75
2021/10/27 19:00:10;;;;;;;7.03;5.32;;;;;;;;;;5075661;28;20043;-73
2021/10/27 19:02:47;;;;;;;5.97;4.95;;;;;;;;;;5078406;28;20041;-74
2021/10/27 19:10:58;;;;;;;3.70;3.10;;;;;;;;;;5080810;28;20054;-75
2021/10/27 19:15:53;;;;;;;5.82;2.72;;;;;;;;;;5080004;28;20037;-73
2021/10/27 19:18:20;;;;;;;4.55;2.55;;;;;;;;;;5082887;28;20017;-75
2021/10/27 19:20:48;;;;;;;4.53;3.50;;;;;;;;;;5083099;28;20060;-75
2021/10/27 19:23:14;;;;;;;3.42;2.10;;;;;;;;;;5081430;28;20025;-76
2021/10/27 19:26:04;;;;;;;7.40;2.88;;;;;;;;;;5079293;28;20025;-74
2021/10/27 20:07:28;;;;;;;4.15;3.20;;;;;;;;;;5054774;28;20021;-74
2021/10/27 20:12:52;;;;;;;6.80;5.60;;;;;;;;;;5068474;28;20169;-76
2021/10/27 20:49:06;;;;;;;2.88;2.20;;;;;;;;;;5076115;28;20101;-74
2021/10/27 20:51:36;;;;;;;2.65;1.90;;;;;;;;;;5075717;28;20029;-75
2021/10/27 20:54:03;;;;;;;3.53;2.17;;;;;;;;;;5077773;28;20027;-74
2021/10/27 20:56:31;;;;;;;4.53;1.90;;;;;;;;;;5076715;28;20016;-72
2021/10/27 21:01:31;;;;;;;4.25;2.50;;;;;;;;;;5076161;28;20032;-77
2021/10/27 21:12:31;;;;;;;4.97;3.25;;;;;;;;;;5075729;28;20031;-74
2021/10/27 21:14:57;;;;;;;5.35;4.05;;;;;;;;;;5075583;28;20017;-74
2021/10/27 21:17:27;;;;;;;9.55;7.25;;;;;;;;;;5075887;28;20029;-75
2021/10/27 21:19:54;;;;;;;5.40;4.10;;;;;;;;;;5076653;28;20023;-74
2021/10/27 21:22:20;;;;;;;2.75;2.50;;;;;;;;;;5078334;28;20025;-76
2021/10/27 21:24:49;;;;;;;3.22;2.92;;;;;;;;;;5080674;28;20024;-74